Mocoreta, Argentina
Current Conditions -  °F | °C
As of 5:00 PM on Friday 31 Oct 2014 (Local Time) from SBUG Reporting Station
Drizzle Drizzle  
Wind Chill: 72°   Ceiling: 9300
Heat Index: 72°   Visibility: 6mi
Dew Point: 66°   Wind: 7mph
Humidity: 83%   Direction: 130°SE
Pressure: 29.85"   Gusts: NA
Location:  30.63°S, 57.97°W
Report Text: SBUG 312000Z 13006KT 9999 -DZ SCT020 SCT030 BKN093 22/19 Q1011
Loading
Personal Weather Stations






























Interactive Weather Map New forecast layout! Learn more

10-Day Weather Forecast

Advertisements
Track Severe Weather on mobile